Terminal Aerodrome Forecast
Issued by NWS Blacksburg, VA

Home | Current Version | Previous Version | Text Only | Print | Product List | Glossary On
Versions: 1 2 3 4 5 6 7 8 9 10 11 12 13 14 15 16 17 18 19 20 21 22
000
FTUS41 KRNK 270520
TAFLYH
TAF
KLYH 270520Z 2706/2806 20003KT 6SM -SHRA BR OVC005
     FM270800 00000KT 4SM BR OVC003
     FM271400 VRB03KT P6SM BKN030
     FM271800 20006KT P6SM BKN050
     FM280200 VRB03KT P6SM BKN030=

USA.gov is the U.S. government's official web portal to all federal, state and local government web resources and services.